• Join FlightAware (Why Join?)
  • Login
  • US Flag 
12:37PM EDT


 

Airport Tracker/Info


-or-


 

Live Flight TrackerFlight Track Log ✈ UAL1021 ✈ 06-Nov-2013 ✈ KEWR - MPTO / PTY

Flight Track Log - Related Links

Times and Time Zones

All times are in EST time to prevent confusion due to time zone crossing. See the UAL1021 flight status page for this flight to view local times or setup timezone preferences in your user account.

Time Position Orientation Groundspeed Altitude Reporting Facility
EST Latitude Longitude Course Direction KTS MPH feet Rate Location/Type
05:14PM 40.6570 -74.1870 37° Northeast 168 193 1,400  Level FlightAware
05:15PM 40.6270 -74.2050 204° Southwest 215 247 2,100 1,920 Climbing FlightAware
05:15PM 40.5809 -74.2463 214° Southwest 239 275 4,200 2,580 Climbing FlightAware ADS-B
05:16PM 40.5565 -74.2668 213° Southwest 236 272 5,500 2,340 Climbing FlightAware ADS-B
05:16PM 40.5449 -74.2714 197° South 239 275 5,700 600 Climbing FlightAware ADS-B
05:16PM 40.5348 -74.2713 180° South 248 285 5,700  Level FlightAware ADS-B
05:17PM 40.5009 -74.2543 159° South 262 302 5,700  Level FlightAware ADS-B (KWWD)
05:17PM 40.4871 -74.2467 157° South 259 298 5,700  Level FlightAware ADS-B
05:17PM 40.4828 -74.2444 158° South 262 302 5,700  Level FlightAware ADS-B (KWWD)
05:17PM 40.4702 -74.2379 158° South 262 302 5,700  Level FlightAware ADS-B
05:18PM 40.4304 -74.2178 159° South 263 303 5,700  Level FlightAware ADS-B (KWWD)
05:18PM 40.4008 -74.2035 160° South 255 293 5,700  Level FlightAware ADS-B (KWWD)
05:18PM 40.3757 -74.1915 160° South 263 303 5,700 1,140 Level FlightAware ADS-B (KWWD)
05:19PM 40.3361 -74.1720 159° South 260 299 6,800 2,280 Climbing FlightAware ADS-B (KWWD)
05:20PM 40.2844 -74.1675 176° South 260 299 8,800 2,400 Climbing FlightAware ADS-B (KWWD)
05:20PM 40.2627 -74.1746 194° South 255 293 9,400 1,920 Climbing FlightAware ADS-B (KWWD)
05:21PM 40.1892 -74.1970 193° South 292 336 11,300 1,740 Climbing FlightAware ADS-B (KWWD)
05:22PM 40.1293 -74.2141 192° South 316 364 12,400 1,620 Climbing FlightAware ADS-B (KWWD)
05:22PM 40.0811 -74.2311 195° South 336 387 13,400 1,680 Climbing FlightAware ADS-B (KWWD)
05:23PM 40.0411 -74.2629 211° Southwest 341 392 14,200 1,860 Climbing FlightAware ADS-B (KWWD)
05:23PM 40.0316 -74.2752 225° Southwest 344 396 14,600 2,160 Climbing FlightAware ADS-B (KWWD)
05:24PM 39.9942 -74.3244 225° Southwest 344 396 15,700 1,860 Climbing FlightAware ADS-B (KWWD)
05:24PM 39.9447 -74.3831 222° Southwest 368 423 16,900 1,800 Climbing FlightAware ADS-B (KWWD)
05:25PM 39.8955 -74.4373 220° Southwest 377 434 18,100 1,740 Climbing FlightAware ADS-B (KWWD)
05:25PM 39.8447 -74.4900 219° Southwest 379 436 19,100 1,500 Climbing FlightAware ADS-B (KWWD)
05:26PM 39.7962 -74.5397 218° Southwest 393 452 19,900 1,380 Climbing FlightAware ADS-B (KWWD)
05:27PM 39.7561 -74.5884 223° Southwest 401 461 20,600 1,380 Climbing FlightAware ADS-B (KWWD)
05:27PM 39.7044 -74.6538 224° Southwest 403 464 21,500 1,320 Climbing FlightAware ADS-B (KWWD)
05:28PM 39.6585 -74.7069 222° Southwest 414 476 22,200 1,380 Climbing FlightAware ADS-B (KWWD)
05:28PM 39.5988 -74.7748 221° Southwest 416 479 23,200 1,320 Climbing FlightAware ADS-B (KWWD)
05:29PM 39.5351 -74.8329 215° Southwest 421 484 24,000 660 Climbing FlightAware ADS-B (KWWD)
05:30PM 39.4820 -74.8643 205° Southwest 428 493 24,000  Level FlightAware ADS-B (KWWD)
05:30PM 39.4265 -74.8966 204° Southwest 426 490 24,000  Level FlightAware ADS-B (KWWD)
05:31PM 39.3542 -74.9390 204° Southwest 424 488 24,000  Level FlightAware ADS-B (KWWD)
05:31PM 39.2998 -74.9709 204° Southwest 423 487 24,000 660 Level FlightAware ADS-B (KWWD)
05:32PM 39.2163 -75.0191 204° Southwest 425 489 24,900 1,200 Climbing FlightAware ADS-B (KWWD)
05:33PM 39.1618 -75.0500 204° Southwest 425 489 25,600 1,200 Climbing FlightAware ADS-B (KWWD)
05:33PM 39.1023 -75.0838 204° Southwest 421 484 26,200 900 Climbing FlightAware ADS-B (KWWD)
05:34PM 39.0369 -75.1211 204° Southwest 437 503 26,700 960 Climbing FlightAware ADS-B (KWWD)
05:34PM 38.9537 -75.1683 204° Southwest 443 510 27,500 1,320 Climbing FlightAware ADS-B (KWWD)
05:35PM 38.8915 -75.2034 204° Southwest 436 502 28,500 1,440 Climbing FlightAware ADS-B (KSBY)
05:36PM 38.7730 -75.2709 204° Southwest 428 493 29,900 1,200 Climbing FlightAware ADS-B (KWWD)
05:37PM 38.7187 -75.3024 204° Southwest 422 486 30,400 840 Climbing FlightAware ADS-B (KWWD)
05:37PM 38.6603 -75.3353 204° Southwest 425 489 30,800 900 Climbing FlightAware ADS-B (KWWD)
05:38PM 38.6028 -75.3672 203° Southwest 433 498 31,400 960 Climbing FlightAware ADS-B (KSBY)
05:38PM 38.5809 -75.3793 203° Southwest 425 489 31,500 780 Climbing FlightAware ADS-B (KWWD)
05:38PM 38.5184 -75.4139 203° Southwest 433 498 32,000 360 Climbing FlightAware ADS-B (KSBY)
05:39PM 38.4524 -75.4506 204° Southwest 434 499 32,000  Level FlightAware ADS-B (KSBY)
05:40PM 38.3916 -75.4845 204° Southwest 434 499 32,000  Level FlightAware ADS-B (KSBY)
05:40PM 38.3332 -75.5178 204° Southwest 432 497 32,000  Level FlightAware ADS-B (KSBY)
05:41PM 38.2792 -75.5500 205° Southwest 436 502 32,000  Level FlightAware ADS-B (KSBY)
05:41PM 38.2190 -75.5824 203° Southwest 437 503 32,000  Level FlightAware ADS-B (KWWD)
05:42PM 38.1550 -75.6167 203° Southwest 435 501 32,000  Level FlightAware ADS-B (KSBY)
05:42PM 38.0933 -75.6498 203° Southwest 433 498 32,000  Level FlightAware ADS-B (KSBY)
05:43PM 38.0467 -75.6748 203° Southwest 424 488 32,000  Level FlightAware ADS-B (KWWD)
05:43PM 38.0171 -75.6907 203° Southwest 424 488 32,000  Level FlightAware ADS-B (KWWD)
05:43PM 37.9979 -75.7011 203° Southwest 423 487 32,000  Level FlightAware ADS-B (KWWD)
05:44PM 37.9394 -75.7324 203° Southwest 423 487 32,000  Level FlightAware ADS-B (KWWD)
05:44PM 37.8702 -75.7695 203° Southwest 423 487 32,000  Level FlightAware ADS-B (KWWD)
05:45PM 37.8995 -75.7538 23° Northeast 430 495 32,000  Level FlightAware ADS-B (KSBY)
05:46PM 37.6924 -75.8642 203° Southwest 423 487 32,000  Level FlightAware ADS-B (KWWD)
05:47PM 37.5830 -75.9220 203° Southwest 436 502 32,000  Level FlightAware
05:47PM 37.5410 -75.9440 203° Southwest 436 502 32,000  Level FlightAware
05:48PM 37.4420 -75.9950 202° Southwest 436 502 32,000  Level FlightAware
05:49PM 37.3660 -76.0330 202° Southwest 436 502 32,000  Level FlightAware
05:50PM 37.2880 -76.0730 202° Southwest 436 502 32,000  Level FlightAware
05:51PM 37.2310 -76.1020 202° Southwest 436 502 32,000  Level FlightAware
05:51PM 37.1930 -76.1210 202° Southwest 436 502 32,000  Level FlightAware
05:52PM 37.0970 -76.1700 202° Southwest 436 502 32,000  Level FlightAware
05:53PM 37.0210 -76.2080 202° Southwest 436 502 32,000  Level FlightAware
05:53PM 36.9640 -76.2370 202° Southwest 436 502 32,000  Level FlightAware
05:54PM 36.8700 -76.2850 202° Southwest 436 502 32,000  Level FlightAware
05:55PM 36.8320 -76.3040 202° Southwest 436 502 32,000  Level FlightAware
05:56PM 36.5160 -76.4790 204° Southwest 438 504 32,000  Level FlightAware
05:57PM 36.4350 -76.5200 202° Southwest 438 504 32,000  Level FlightAware
05:58PM 36.3560 -76.5610 203° Southwest 437 503 32,000  Level FlightAware
05:59PM 36.2540 -76.6130 202° Southwest 434 499 32,000  Level FlightAware
05:59PM 36.1890 -76.6460 202° Southwest 434 499 32,000  Level FlightAware
06:00PM 36.1050 -76.6880 202° Southwest 434 499 32,000  Level FlightAware
06:01PM 36.0210 -76.7310 202° Southwest 433 498 32,000  Level FlightAware
06:02PM 35.9240 -76.7800 202° Southwest 434 499 32,000  Level FlightAware
06:02PM 35.8610 -76.8120 202° Southwest 434 499 32,000  Level FlightAware
06:03PM 35.7830 -76.8510 202° Southwest 434 499 32,000  Level FlightAware
06:04PM 35.6880 -76.8980 202° Southwest 434 499 32,000  Level FlightAware
06:05PM 35.6090 -76.9370 202° Southwest 434 499 32,000  Level FlightAware
06:06PM 35.5520 -76.9650 202° Southwest 434 499 32,000  Level FlightAware
06:07PM 35.4570 -77.0130 202° Southwest 434 499 32,000  Level FlightAware
06:07PM 35.3840 -77.0510 203° Southwest 438 504 32,000  Level FlightAware
06:08PM 35.2175 -77.1340 202° Southwest 440 506 32,000  Level FlightAware ADS-B
06:09PM 35.1310 -77.1731 200° South 447 514 32,000  Level FlightAware ADS-B
06:09PM 35.0634 -77.1886 191° South 450 518 32,000  Level FlightAware ADS-B
06:10PM 35.0009 -77.2013 189° South 450 518 32,000  Level FlightAware ADS-B
06:11PM 34.8854 -77.2250 190° South 449 517 32,000  Level FlightAware ADS-B
06:11PM 34.8231 -77.2378 190° South 449 517 32,000  Level FlightAware ADS-B
06:12PM 34.7459 -77.2536 190° South 448 516 32,000  Level FlightAware ADS-B
06:13PM 34.6940 -77.2640 189° South 448 516 32,000  Level FlightAware
06:14PM 34.6090 -77.2820 190° South 448 516 32,000  Level FlightAware
06:15PM 34.4910 -77.3060 190° South 448 516 32,000  Level FlightAware
06:16PM 34.3970 -77.3250 189° South 447 514 32,000  Level FlightAware
06:17PM 34.2740 -77.3500 190° South 447 514 32,000  Level FlightAware
06:17PM 34.2200 -77.3610 190° South 448 516 32,000  Level FlightAware
06:18PM 34.1390 -77.3770 189° South 448 516 32,000  Level FlightAware
06:19PM 34.0360 -77.3980 190° South 448 516 32,000  Level FlightAware
06:19PM 33.9370 -77.4180 190° South 448 516 32,000  Level FlightAware
06:20PM 33.8090 -77.4430 189° South 450 518 32,000  Level FlightAware
06:21PM 33.6740 -77.4700 189° South 451 519 32,000  Level FlightAware
06:22PM 33.5900 -77.4870 190° South 449 517 32,000  Level FlightAware
06:23PM 33.5240 -77.5010 190° South 449 517 32,000  Level FlightAware
06:23PM 33.4540 -77.5140 189° South 448 516 32,000  Level FlightAware
06:24PM 33.3970 -77.5250 189° South 447 514 32,000  Level FlightAware
06:24PM 33.3110 -77.5440 190° South 447 514 32,000  Level FlightAware
06:25PM 33.2070 -77.5660 190° South 447 514 32,000  Level FlightAware
06:26PM 33.1220 -77.5830 190° South 447 514 32,000  Level FlightAware
06:27PM 33.0600 -77.5970 191° South 447 514 32,000  Level FlightAware
06:28PM 32.9560 -77.6180 190° South 447 514 32,000  Level FlightAware
06:29PM 32.8730 -77.6360 190° South 447 514 32,000  Level FlightAware
06:30PM 32.7690 -77.6580 190° South 447 514 32,000  Level FlightAware
06:30PM 32.6860 -77.6750 190° South 447 514 32,000  Level FlightAware
06:31PM 32.6020 -77.6920 190° South 447 514 32,000  Level FlightAware
06:32PM 32.5400 -77.7050 190° South 447 514 32,000  Level FlightAware
06:33PM 32.4360 -77.7270 190° South 447 514 32,000  Level FlightAware
06:34PM 32.3720 -77.7410 190° South 447 514 32,000 -120 Level FlightAware
06:34PM 32.0386 -77.7881 190° South 442 509 31,900 -60 Descending Jacksonville Center
06:35PM 31.9144 -77.8119 189° South 442 509 31,900  Level Jacksonville Center
06:36PM 31.7942 -77.8333 189° South 442 509 31,900  Level Jacksonville Center
06:37PM 31.6739 -77.8519 188° South 442 509 31,900  Level Jacksonville Center
06:38PM 31.5536 -77.8756 189° South 442 509 31,900  Level Jacksonville Center
06:39PM 31.4317 -77.9017 190° South 442 509 31,900  Level Jacksonville Center
06:40PM 31.3114 -77.9250 189° South 442 509 31,900  Level Jacksonville Center
06:41PM 31.1892 -77.9511 190° South 442 509 31,900  Level Jacksonville Center
06:42PM 31.0692 -77.9767 190° South 447 514 31,900  Level Jacksonville Center
06:43PM 30.9325 -78.0033 190° South 444 511 31,900  Level Jacksonville Center
06:44PM 30.8103 -78.0264 189° South 450 518 31,900  Level Jacksonville Center
06:45PM 30.6900 -78.0494 189° South 448 516 31,900  Level Jacksonville Center
06:46PM 30.5719 -78.0725 190° South 448 516 31,900  Level Jacksonville Center
06:48PM 30.3167 -78.1147 188° South 439 505 31,900  Level Miami Center
06:49PM 30.1933 -78.1350 188° South 450 518 31,900  Level Miami Center
06:50PM 30.0703 -78.1550 188° South 450 518 31,900  Level Miami Center
06:51PM 29.9386 -78.1847 191° South 450 518 31,900  Level Miami Center
06:52PM 29.8133 -78.2022 187° South 450 518 31,900  Level Miami Center
06:53PM 29.6881 -78.2197 187° South 450 518 31,900  Level Miami Center
06:54PM 29.5689 -78.2397 188° South 455 524 31,900  Level Miami Center
06:55PM 29.4478 -78.2619 189° South 448 516 31,900  Level Miami Center
06:56PM 29.3203 -78.2772 186° South 448 516 31,900  Level Miami Center
06:57PM 29.2011 -78.2994 189° South 448 516 31,900  Level Miami Center
06:58PM 29.0819 -78.3192 188° South 448 516 31,900  Level Miami Center
06:59PM 28.9689 -78.3700 201° Southwest 434 499 31,900  Level Miami Center
07:00PM 28.8678 -78.4444 213° Southwest 441 507 31,900  Level Miami Center
07:01PM 28.7669 -78.5186 213° Southwest 437 503 31,900 300 Level Miami Center
07:07PM 28.0690 -78.6170 213° Southwest 438 504 34,000 300 Climbing FlightAware
07:08PM 27.9740 -78.6280 186° South 447 514 34,000  Level FlightAware
07:08PM 27.9090 -78.6350 185° South 447 514 34,000  Level FlightAware
07:09PM 27.7850 -78.6490 186° South 449 517 34,000  Level FlightAware
07:10PM 27.7226 -78.6564 186° South 450 518 34,000  Level FlightAware ADS-B (MYPI / PID)
07:10PM 27.6780 -78.6620 186° South 451 519 34,000  Level FlightAware
07:11PM 27.6060 -78.6700 186° South 453 521 34,000  Level FlightAware
07:12PM 27.4760 -78.6850 186° South 454 522 34,000  Level FlightAware
07:13PM 27.3760 -78.6960 186° South 453 521 34,000  Level FlightAware
07:13PM 27.2610 -78.7090 186° South 452 520 34,000  Level FlightAware
07:14PM 27.1823 -78.7180 186° South 453 521 34,000  Level FlightAware ADS-B (MYPI / PID)
07:15PM 27.1310 -78.7240 186° South 452 520 34,000  Level FlightAware
07:15PM 27.0918 -78.7282 185° South 452 520 34,000  Level FlightAware ADS-B (MYPI / PID)
07:16PM 26.9990 -78.7390 186° South 453 521 34,000  Level FlightAware
07:16PM 26.8850 -78.7520 186° South 454 522 34,000  Level FlightAware
07:17PM 26.7570 -78.7660 186° South 455 524 34,000  Level FlightAware
07:18PM 26.6900 -78.7740 186° South 456 525 34,000  Level FlightAware
07:19PM 26.5720 -78.7870 186° South 457 526 34,000  Level FlightAware
07:20PM 26.4790 -78.7970 185° South 457 526 34,000  Level FlightAware
07:21PM 26.3700 -78.8100 186° South 458 527 34,000  Level FlightAware
07:21PM 26.2600 -78.8220 186° South 459 528 34,000  Level FlightAware
07:22PM 26.1410 -78.8350 186° South 458 527 34,000  Level FlightAware
07:23PM 26.0489 -78.8454 186° South 458 527 34,000  Level FlightAware ADS-B (MYPI / PID)
07:23PM 25.9662 -78.8546 186° South 458 527 34,000 120 Level FlightAware ADS-B (MYPI / PID)
07:24PM 25.8508 -78.8609 183° South 462 532 34,200 480 Climbing FlightAware ADS-B (MYPI / PID)
07:25PM 25.7440 -78.8590 179° South 458 527 35,000 420 Climbing FlightAware
07:26PM 25.6470 -78.8580 179° South 460 529 35,000  Level FlightAware
07:27PM 25.5220 -78.8570 180° South 461 531 35,000  Level FlightAware
07:28PM 25.4080 -78.8550 179° South 461 531 35,000  Level FlightAware
07:29PM 25.3080 -78.8540 179° South 461 531 35,000  Level FlightAware
07:30PM 25.2100 -78.8530 179° South 461 531 35,000  Level FlightAware
07:30PM 25.1540 -78.8520 179° South 461 531 35,000  Level FlightAware
07:31PM 25.0740 -78.8510 179° South 461 531 35,000  Level FlightAware
07:32PM 24.9530 -78.8500 180° South 463 533 35,000  Level FlightAware
07:33PM 24.8330 -78.8480 179° South 463 533 35,000  Level FlightAware
07:33PM 24.7380 -78.8470 179° South 464 534 35,000  Level FlightAware
07:34PM 24.6210 -78.8460 180° South 465 535 35,000  Level FlightAware
07:35PM 24.4840 -78.8440 179° South 467 537 35,000  Level FlightAware
07:36PM 24.3720 -78.8440 180° South 466 536 35,000  Level FlightAware
07:37PM 24.2690 -78.8480 182° South 467 537 35,000  Level FlightAware
07:37PM 24.2100 -78.8490 181° South 467 537 35,000  Level FlightAware
07:38PM 24.1090 -78.8510 181° South 467 537 35,000  Level FlightAware
07:39PM 23.9740 -78.8540 181° South 468 539 35,000  Level FlightAware
07:40PM 23.9220 -78.8550 181° South 468 539 35,000  Level FlightAware
07:41PM 23.8080 -78.8570 181° South 468 539 35,000  Level FlightAware
07:41PM 23.6970 -78.8600 181° South 468 539 35,000  Level FlightAware
07:42PM 23.5620 -78.8620 181° South 469 540 35,000  Level FlightAware
07:43PM 23.4950 -78.8640 182° South 469 540 35,000  Level FlightAware
07:44PM 23.4290 -78.8650 181° South 469 540 35,000  Level FlightAware
07:44PM 23.3620 -78.8660 181° South 469 540 35,000  Level FlightAware
07:45PM 23.2520 -78.8680 181° South 469 540 35,000  Level FlightAware
07:46PM 23.2080 -78.8690 181° South 469 540 35,000  Level FlightAware
07:46PM 23.1410 -78.8710 182° South 469 540 35,000  Level FlightAware
07:47PM 23.0950 -78.8710 180° South 469 540 35,000  Level FlightAware
07:48PM 22.9840 -78.8730 181° South 469 540 35,000  Level FlightAware
07:48PM 22.9180 -78.8750 182° South 469 540 35,000  Level FlightAware
07:49PM 22.8300 -78.8760 181° South 469 540 35,000  Level FlightAware
07:49PM 22.7830 -78.8770 181° South 469 540 35,000  Level FlightAware
07:50PM 22.6710 -78.8790 181° South 469 540 35,000  Level FlightAware
07:51PM 22.6270 -78.8800 181° South 469 540 35,000  Level FlightAware
07:52PM 22.5160 -78.8820 181° South 469 540 35,000  Level FlightAware
07:55PM 22.2011 -78.8319 172° South  Level FlightAware Approximate
07:56PM 22.0807 -78.8128 172° South  Level FlightAware Approximate
07:57PM 21.9561 -78.8028 183° South  Level FlightAware Approximate
07:58PM 21.8347 -78.8104 183° South  Level FlightAware Approximate
07:59PM 21.7132 -78.8180 183° South  Level FlightAware Approximate
08:00PM 21.5918 -78.8256 183° South  Level FlightAware Approximate
08:01PM 21.4704 -78.8332 183° South  Level FlightAware Approximate
08:02PM 21.3489 -78.8407 183° South  Level FlightAware Approximate
08:03PM 21.2275 -78.8483 183° South  Level FlightAware Approximate
08:04PM 21.1062 -78.8578 184° South  Level FlightAware Approximate
08:05PM 20.9849 -78.8680 184° South  Level FlightAware Approximate
08:06PM 20.8636 -78.8781 184° South  Level FlightAware Approximate
08:07PM 20.7424 -78.8882 184° South  Level FlightAware Approximate
08:08PM 20.6211 -78.8982 184° South  Level FlightAware Approximate
08:09PM 20.4997 -78.9056 183° South  Level FlightAware Approximate
08:10PM 20.3782 -78.9124 183° South  Level FlightAware Approximate
08:11PM 20.2567 -78.9191 183° South  Level FlightAware Approximate
08:12PM 20.1353 -78.9258 183° South  Level FlightAware Approximate
08:13PM 20.0138 -78.9326 183° South  Level FlightAware Approximate
08:14PM 19.8923 -78.9396 183° South  Level FlightAware Approximate
08:15PM 19.7708 -78.9467 183° South  Level FlightAware Approximate
08:16PM 19.6494 -78.9537 183° South  Level FlightAware Approximate
08:17PM 19.5279 -78.9608 183° South  Level FlightAware Approximate
08:18PM 19.4065 -78.9678 183° South  Level FlightAware Approximate
08:19PM 19.2850 -78.9749 183° South  Level FlightAware Approximate
08:20PM 19.1635 -78.9819 183° South  Level FlightAware Approximate
08:21PM 19.0421 -78.9889 183° South  Level FlightAware Approximate
08:22PM 18.9206 -78.9959 183° South  Level FlightAware Approximate
08:23PM 18.7992 -79.0029 183° South  Level FlightAware Approximate
08:24PM 18.6777 -79.0098 183° South  Level FlightAware Approximate
08:25PM 18.5562 -79.0168 183° South  Level FlightAware Approximate
08:26PM 18.4348 -79.0238 183° South  Level FlightAware Approximate
08:27PM 18.3133 -79.0307 183° South  Level FlightAware Approximate
08:28PM 18.1919 -79.0376 183° South  Level FlightAware Approximate
08:29PM 18.0704 -79.0446 183° South  Level FlightAware Approximate
08:30PM 17.9489 -79.0515 183° South  Level FlightAware Approximate
08:31PM 17.8275 -79.0584 183° South  Level FlightAware Approximate
08:32PM 17.7060 -79.0653 183° South  Level FlightAware Approximate
08:33PM 17.5846 -79.0722 183° South  Level FlightAware Approximate
08:34PM 17.4631 -79.0791 183° South  Level FlightAware Approximate
08:35PM 17.3417 -79.0859 183° South  Level FlightAware Approximate
08:36PM 17.2202 -79.0928 183° South  Level FlightAware Approximate
08:37PM 17.0987 -79.0996 183° South  Level FlightAware Approximate
08:38PM 16.9773 -79.1065 183° South  Level FlightAware Approximate
08:39PM 16.8558 -79.1133 183° South  Level FlightAware Approximate
08:40PM 16.7344 -79.1201 183° South  Level FlightAware Approximate
08:41PM 16.6129 -79.1270 183° South  Level FlightAware Approximate
08:42PM 16.4914 -79.1338 183° South  Level FlightAware Approximate
08:43PM 16.3700 -79.1406 183° South  Level FlightAware Approximate
08:44PM 16.2485 -79.1474 183° South  Level FlightAware Approximate
08:45PM 16.1271 -79.1541 183° South  Level FlightAware Approximate
08:46PM 16.0028 -79.1611 183° South  Level FlightAware Approximate
08:47PM 15.8785 -79.1680 183° South  Level FlightAware Approximate
08:48PM 15.7542 -79.1749 183° South  Level FlightAware Approximate
08:49PM 15.6299 -79.1818 183° South  Level FlightAware Approximate
08:50PM 15.5056 -79.1887 183° South  Level FlightAware Approximate
08:51PM 15.3813 -79.1956 183° South  Level FlightAware Approximate
08:52PM 15.2570 -79.2025 183° South  Level FlightAware Approximate
08:53PM 15.1327 -79.2093 183° South  Level FlightAware Approximate
08:54PM 15.0084 -79.2162 183° South  Level FlightAware Approximate
08:55PM 14.8841 -79.2231 183° South  Level FlightAware Approximate
08:56PM 14.7598 -79.2301 183° South  Level FlightAware Approximate
08:57PM 14.6356 -79.2370 183° South  Level FlightAware Approximate
08:58PM 14.5113 -79.2439 183° South  Level FlightAware Approximate
08:59PM 14.3870 -79.2508 183° South  Level FlightAware Approximate
09:00PM 14.2627 -79.2577 183° South  Level FlightAware Approximate
09:01PM 14.1384 -79.2646 183° South  Level FlightAware Approximate
09:02PM 14.0141 -79.2715 183° South  Level FlightAware Approximate
09:03PM 13.8898 -79.2784 183° South  Level FlightAware Approximate
09:04PM 13.7655 -79.2853 183° South  Level FlightAware Approximate
09:05PM 13.6412 -79.2922 183° South  Level FlightAware Approximate
09:06PM 13.5169 -79.2990 183° South  Level FlightAware Approximate
09:07PM 13.3927 -79.3059 183° South  Level FlightAware Approximate
09:08PM 13.2684 -79.3127 183° South  Level FlightAware Approximate
09:09PM 13.1441 -79.3195 183° South  Level FlightAware Approximate
09:09PM 12.2760 -79.4010 183° South 468 539 35,000  Level FlightAware
09:09PM 12.2130 -79.4040 183° South 468 539 35,000  Level FlightAware
09:10PM 13.0198 -79.3264 183° South  Level FlightAware Approximate
09:10PM 12.0840 -79.4100 183° South 468 539 35,000  Level FlightAware
09:10PM 12.0390 -79.4120 182° South 467 537 35,000  Level FlightAware
09:11PM 11.9080 -79.4180 183° South 467 537 35,000  Level FlightAware
09:12PM 11.7880 -79.4240 183° South 467 537 35,000  Level FlightAware
09:13PM 11.7340 -79.4260 182° South 467 537 35,000  Level FlightAware
09:13PM 11.6610 -79.4300 183° South 467 537 35,000  Level FlightAware
09:14PM 11.5290 -79.4360 183° South 466 536 35,000  Level FlightAware
09:15PM 11.4290 -79.4400 182° South 465 535 35,000  Level FlightAware
09:16PM 11.2890 -79.4470 183° South 464 534 35,000  Level FlightAware
09:17PM 11.1600 -79.4530 183° South 464 534 35,000  Level FlightAware
09:18PM 11.0210 -79.4590 182° South 464 534 35,000 -180 Level FlightAware
09:19PM 10.9550 -79.4630 183° South 447 514 34,800 -780 Descending FlightAware
09:20PM 10.8570 -79.4670 182° South 418 481 34,000 -1,020 Descending FlightAware
09:21PM 10.7410 -79.4630 178° South 417 480 33,000 -1,560 Descending FlightAware
09:22PM 10.6120 -79.4580 178° South 416 479 30,800 -2,880 Descending FlightAware
09:22PM 10.5230 -79.4550 178° South 438 504 27,800 -3,300 Descending FlightAware
09:23PM 10.4100 -79.4510 178° South 421 484 25,300 -2,700 Descending FlightAware
09:24PM 10.3130 -79.4470 178° South 417 480 23,100 -2,640 Descending FlightAware
09:25PM 10.1880 -79.4420 178° South 402 463 20,300 -2,520 Descending FlightAware
09:26PM 10.0710 -79.4380 178° South 384 442 17,700 -2,460 Descending FlightAware
09:27PM 10.0080 -79.4350 177° South 372 428 16,200 -2,400 Descending FlightAware
09:28PM 9.9130 -79.4320 178° South 357 411 14,100 -2,280 Descending FlightAware
09:29PM 9.8470 -79.4290 177° South 355 409 12,600 -2,220 Descending FlightAware
09:29PM 9.8070 -79.4280 179° South 342 394 11,700 -1,740 Descending FlightAware
09:30PM 9.7020 -79.4240 178° South 323 372 10,000 -840 Descending FlightAware
09:31PM 9.6240 -79.4210 178° South 287 330 10,100 60 Climbing FlightAware
09:32PM 9.5630 -79.4190 178° South 278 320 10,100  Level FlightAware
09:32PM 9.5170 -79.4170 178° South 278 320 10,100  Level FlightAware
09:33PM 9.4430 -79.4150 178° South 288 331 10,100  Level FlightAware
09:34PM 9.4020 -79.4130 177° South 278 320 10,100 -480 Level FlightAware
09:34PM 9.3680 -79.4120 178° South 290 334 9,700 -1,200 Descending FlightAware
09:35PM 9.3220 -79.4100 178° South 290 334 8,900 -1,320 Descending FlightAware
09:35PM 9.2810 -79.4090 179° South 278 320 8,300 -1,200 Descending FlightAware
09:36PM 9.2420 -79.4070 177° South 274 315 7,700 -1,080 Descending FlightAware
09:36PM 9.1900 -79.4050 178° South 273 314 7,100 -600 Descending FlightAware
09:37PM 9.1580 -79.4040 178° South 271 312 7,100 -840 Level FlightAware
09:37PM 9.1140 -79.4020 177° South 277 319 6,300 -960 Descending FlightAware
09:38PM 9.0750 -79.4010 179° South 272 313 6,100 -240 Descending FlightAware
09:38PM 9.0400 -79.4000 178° South 240 276 6,100  Level FlightAware
09:39PM 9.0100 -79.3980 176° South 240 276 6,100  Level FlightAware
09:39PM 8.9940 -79.3970 176° South 240 276 6,100  Level FlightAware
09:40PM 8.9810 -79.3960 176° South 240 276 6,100 -660 Level FlightAware
09:40PM 8.9480 -79.3940 177° South 233 268 5,400 -1,200 Descending FlightAware
09:40PM 8.9350 -79.3930 176° South 229 264 5,200 -1,440 Descending FlightAware
09:41PM 8.8930 -79.3910 177° South 231 266 4,200 -1,380 Descending FlightAware
09:42PM 8.8650 -79.4060 208° Southwest 225 259 3,500 -1,080 Descending FlightAware
09:42PM 8.8400 -79.4330 227° Southwest 202 232 3,000 -900 Descending FlightAware
09:43PM 8.8270 -79.4550 239° Southwest 197 227 2,600 -1,020 Descending FlightAware
09:43PM 8.8360 -79.4720 298° West 183 211 2,100 -1,080 Descending FlightAware
09:43PM 8.8500 -79.4750 348° North 182 209 1,800 -360 Descending FlightAware
09:44PM 8.8780 -79.4760 358° North 176 203 1,800  Level FlightAware
09:45PM 8.9100 -79.4710 North 172 198 1,800  Level FlightAware
09:45PM 8.9290 -79.4610 27° Northeast 174 200 1,800  Level FlightAware
09:46PM 8.9460 -79.4500 33° Northeast 175 201 1,800  Level FlightAware
09:46PM 8.9680 -79.4380 28° Northeast 171 197 1,800 -180 Level FlightAware
09:46PM 8.9790 -79.4320 28° Northeast 169 194 1,700 -1,200 Descending FlightAware
09:47PM 9.0290 -79.4030 30° Northeast 151 174 600 -1,260 Descending FlightAware
09:48PM 9.0470 -79.3930 29° Northeast 148 170 100 -1,020 Descending FlightAware